Current | Forecast
Updated: 10:30 AM MSK on February 19, 2018
Observed at Voronez Airport, Russia
Temperature 28°F
Windchill 23°F
Humidity 93%
Dew Point 27°F
Wind SW at 4 mph
Pressure 30.06 in (Steady)
Conditions Mostly Cloudy
Visibility 5.0 miles
UV 1 out of 16
Clouds Mostly Cloudy (BKN) : 1300 ft
Yesterday's Maximum 30°F
Yesterday's Minimum 19°F approx.
Yesterday's Heating Degree Days 40 approx.
Sunrise7:33 AM MSK
Sunset5:47 PM MSK
Moon Rise9:13 AM MSK
Moon Set9:46 PM MSK
Moon PhaseMoon Phase
Waxing Crescent
Raw METARMETAR UUOO 190730Z 22002MPS 8000 BKN013 M02/M03 Q1018 R30/420242 NOSIG RMK QFE750


Monday
. High: 71° F.
Tuesday
. High: 59° F.
Wednesday
. High: 62° F.
Thursday
. High: 55° F.
Friday
. High: 64° F.
Saturday
. High: 62° F.
Sunday
. High: 60° F.
Monday
. High: 64° F.

Units: English | Metric

Find the Weather for any City, State or Zipcode, or Country:

U.S. State List | Severe Weather | Tropical Storms | Ski Conditions
United States | Canada | Central America | South America | Asia | Europe | Australia | Africa | Islands

Weather Underground

© Copyright 2018
The Weather Company, LLC